createdAt,value
2023-01-01T00:01:41.965Z,99052.19
2023-01-01T00:04:12.252Z,99046.38
2023-01-01T00:06:38.999Z,99043.83
2023-01-01T00:09:24.151Z,99051.68
2023-01-01T00:11:51.018Z,99053.73
2023-01-01T00:14:17.468Z,99047.17
2023-01-01T00:16:44.149Z,99056.44
2023-01-01T00:19:10.643Z,99061.59
2023-01-01T00:21:37.116Z,99057.36
2023-01-01T00:24:03.905Z,99058.57
2023-01-01T00:26:34.804Z,99051.84
2023-01-01T00:29:03.445Z,99056.40
2023-01-01T00:31:30.751Z,99056.39
2023-01-01T00:33:57.343Z,99053.05
2023-01-01T00:36:26.530Z,99055.24
2023-01-01T00:38:53.961Z,99062.77
2023-01-01T00:41:20.910Z,99057.36
2023-01-01T00:43:47.383Z,99064.23
2023-01-01T00:46:14.570Z,99060.63
2023-01-01T00:48:41.392Z,99064.09
2023-01-01T00:51:08.172Z,99072.63
2023-01-01T00:53:35.105Z,99075.37
2023-01-01T00:56:01.987Z,99069.80
2023-01-01T00:58:28.441Z,99077.73
2023-01-01T01:00:55.001Z,99082.98
2023-01-01T01:03:31.018Z,99092.57
2023-01-01T01:05:58.557Z,99094.05
2023-01-01T01:08:30.772Z,99091.60
2023-01-01T01:11:20.397Z,99100.27
2023-01-01T01:13:48.807Z,99103.13
2023-01-01T01:16:21.206Z,99105.48
2023-01-01T01:18:51.068Z,99101.52
2023-01-01T01:21:19.813Z,99105.17
2023-01-01T01:23:47.886Z,99110.23
2023-01-01T01:26:21.095Z,99113.64
2023-01-01T01:28:50.074Z,99110.59
2023-01-01T01:31:21.828Z,99113.77
2023-01-01T01:33:49.431Z,99114.77
2023-01-01T01:36:16.910Z,99118.80
2023-01-01T01:38:43.546Z,99119.54
2023-01-01T01:41:26.211Z,99125.98
2023-01-01T01:44:00.631Z,99125.19
2023-01-01T01:46:33.368Z,99130.45
2023-01-01T01:49:05.196Z,99135.30
2023-01-01T01:51:38.676Z,99137.48
2023-01-01T01:54:13.790Z,99137.64
2023-01-01T01:56:53.371Z,99142.57
2023-01-01T01:59:21.980Z,99142.25
2023-01-01T02:01:48.504Z,99152.27
2023-01-01T02:04:16.375Z,99155.43
2023-01-01T02:06:44.490Z,99163.02
2023-01-01T02:09:11.420Z,99168.27
2023-01-01T02:11:37.855Z,99173.94
2023-01-01T02:14:05.114Z,99183.41
2023-01-01T02:16:43.385Z,99181.50
2023-01-01T02:19:52.058Z,99190.77
2023-01-01T02:22:49.577Z,99193.83
2023-01-01T02:25:26.896Z,99201.56
2023-01-01T02:28:05.140Z,99201.38
2023-01-01T02:30:35.928Z,99200.33
2023-01-01T02:33:11.445Z,99207.86
2023-01-01T02:35:48.063Z,99207.42
2023-01-01T02:38:24.094Z,99204.41
2023-01-01T02:40:56.909Z,99207.95
2023-01-01T02:43:25.106Z,99197.36
2023-01-01T02:45:56.056Z,99199.05
2023-01-01T02:48:40.888Z,99206.95
2023-01-01T02:51:13.353Z,99208.70
2023-01-01T02:54:09.686Z,99211.29
2023-01-01T02:57:09.012Z,99214.31
2023-01-01T03:00:10.217Z,99212.39
2023-01-01T03:02:54.903Z,99212.70
2023-01-01T03:06:00.408Z,99215.27
2023-01-01T03:08:41.250Z,99219.34
2023-01-01T03:11:12.665Z,99213.85
2023-01-01T03:14:00.703Z,99211.72
2023-01-01T03:16:36.156Z,99222.59
2023-01-01T03:19:18.206Z,99227.30
2023-01-01T03:22:03.411Z,99220.90
2023-01-01T03:24:59.622Z,99225.52
2023-01-01T03:27:35.337Z,99225.48
2023-01-01T03:30:07.756Z,99225.85
2023-01-01T03:32:58.729Z,99226.41
2023-01-01T03:35:36.427Z,99232.16
2023-01-01T03:38:08.220Z,99234.94
2023-01-01T03:40:37.709Z,99232.67
2023-01-01T03:43:25.339Z,99233.77
2023-01-01T03:45:54.154Z,99236.86
2023-01-01T03:48:20.744Z,99236.53
2023-01-01T03:51:01.978Z,99232.40
2023-01-01T03:53:50.771Z,99237.17
2023-01-01T03:56:29.868Z,99241.12
2023-01-01T03:59:09.321Z,99240.67
2023-01-01T04:01:42.355Z,99236.86
2023-01-01T04:04:09.989Z,99237.27
2023-01-01T04:06:36.513Z,99242.12
2023-01-01T04:09:07.373Z,99244.86
2023-01-01T04:11:54.065Z,99240.19
2023-01-01T04:14:36.931Z,99241.09
2023-01-01T04:17:05.129Z,99242.16
2023-01-01T04:19:31.988Z,99251.77
2023-01-01T04:21:59.088Z,99251.30
2023-01-01T04:24:25.939Z,99253.20
2023-01-01T04:26:53.193Z,99259.36
2023-01-01T04:29:20.137Z,99260.63
2023-01-01T04:31:47.403Z,99258.92
2023-01-01T04:34:14.868Z,99265.15
2023-01-01T04:36:42.358Z,99266.17
2023-01-01T04:39:08.868Z,99267.61
2023-01-01T04:41:35.362Z,99270.52
2023-01-01T04:44:01.861Z,99272.58
2023-01-01T04:46:28.407Z,99278.35
2023-01-01T04:48:54.875Z,99277.95
2023-01-01T04:51:21.611Z,99276.61
2023-01-01T04:53:48.100Z,99277.01
2023-01-01T04:56:20.162Z,99277.00
2023-01-01T04:58:47.411Z,99282.00
2023-01-01T05:01:25.600Z,99283.33
2023-01-01T05:03:52.659Z,99281.52
2023-01-01T05:06:20.412Z,99284.19
2023-01-01T05:08:50.119Z,99281.33
2023-01-01T05:11:19.536Z,99287.27
2023-01-01T05:13:48.189Z,99290.94
2023-01-01T05:16:17.177Z,99290.61
2023-01-01T05:18:44.381Z,99295.36
2023-01-01T05:21:14.004Z,99295.98
2023-01-01T05:23:40.825Z,99297.70
2023-01-01T05:26:12.485Z,99303.44
2023-01-01T05:28:39.552Z,99308.73
2023-01-01T05:31:14.582Z,99308.68
2023-01-01T05:33:42.145Z,99303.84
2023-01-01T05:36:13.644Z,99300.58
2023-01-01T05:38:40.230Z,99300.42
2023-01-01T05:41:07.992Z,99303.55
2023-01-01T05:43:36.001Z,99308.13
2023-01-01T05:46:09.322Z,99305.83
2023-01-01T05:48:36.683Z,99302.20
2023-01-01T05:51:08.294Z,99308.40
2023-01-01T05:53:35.177Z,99307.90
2023-01-01T05:56:02.150Z,99303.58
2023-01-01T05:58:30.555Z,99304.88
2023-01-01T06:01:13.423Z,99309.79
2023-01-01T06:03:40.793Z,99309.09
2023-01-01T06:06:10.251Z,99307.25
2023-01-01T06:08:36.769Z,99310.58
2023-01-01T06:11:06.488Z,99305.67
2023-01-01T06:13:33.250Z,99312.13
2023-01-01T06:16:01.169Z,99313.75
2023-01-01T06:18:32.672Z,99315.80
2023-01-01T06:21:10.390Z,99315.46
2023-01-01T06:23:37.311Z,99312.02
2023-01-01T06:26:28.387Z,99313.51
2023-01-01T06:28:55.839Z,99318.91
2023-01-01T06:31:23.065Z,99319.25
2023-01-01T06:33:50.183Z,99320.17
2023-01-01T06:36:19.406Z,99315.54
2023-01-01T06:38:47.807Z,99322.44
2023-01-01T06:41:16.859Z,99321.50
2023-01-01T06:43:43.811Z,99328.15
2023-01-01T06:46:15.862Z,99325.84
2023-01-01T06:48:42.986Z,99325.80
2023-01-01T06:51:11.621Z,99326.63
2023-01-01T06:53:38.772Z,99322.27
2023-01-01T06:56:05.755Z,99325.15
2023-01-01T06:58:33.385Z,99326.10
2023-01-01T07:01:12.558Z,99329.64
2023-01-01T07:03:40.113Z,99335.16
2023-01-01T07:06:07.955Z,99329.89
2023-01-01T07:08:35.120Z,99333.95
2023-01-01T07:11:02.545Z,99338.41
2023-01-01T07:13:29.951Z,99339.67
2023-01-01T07:15:56.772Z,99342.95
2023-01-01T07:18:23.975Z,99343.99
2023-01-01T07:20:58.571Z,99344.52
2023-01-01T07:23:27.354Z,99345.38
2023-01-01T07:25:54.921Z,99351.25
2023-01-01T07:28:23.266Z,99350.39
2023-01-01T07:30:50.271Z,99348.84
2023-01-01T07:33:19.402Z,99347.59
2023-01-01T07:35:46.585Z,99346.81
2023-01-01T07:38:14.414Z,99350.16
2023-01-01T07:40:41.646Z,99355.83
2023-01-01T07:43:08.745Z,99359.05
2023-01-01T07:45:35.620Z,99364.09
2023-01-01T07:48:02.189Z,99364.02
2023-01-01T07:50:31.343Z,99367.48
2023-01-01T07:52:58.324Z,99377.05
2023-01-01T07:55:25.079Z,99382.13
2023-01-01T07:57:51.669Z,99381.52
2023-01-01T08:00:20.500Z,99378.98
2023-01-01T08:02:48.120Z,99382.04
2023-01-01T08:05:18.651Z,99379.92
2023-01-01T08:07:49.257Z,99375.98
2023-01-01T08:10:17.711Z,99383.69
2023-01-01T08:12:44.161Z,99386.22
2023-01-01T08:15:11.920Z,99386.60
2023-01-01T08:17:45.937Z,99386.56
2023-01-01T08:20:13.596Z,99394.10
2023-01-01T08:22:41.337Z,99388.42
2023-01-01T08:25:08.225Z,99388.42
2023-01-01T08:27:34.698Z,99391.09
2023-01-01T08:30:01.331Z,99389.54
2023-01-01T08:32:27.907Z,99383.27
2023-01-01T08:34:54.439Z,99385.27
2023-01-01T08:37:23.019Z,99385.40
2023-01-01T08:39:53.572Z,99384.97
2023-01-01T08:42:20.032Z,99385.33
2023-01-01T08:44:46.629Z,99387.17
2023-01-01T08:47:22.416Z,99383.28
2023-01-01T08:49:49.269Z,99377.05
2023-01-01T08:52:16.495Z,99384.13
2023-01-01T08:54:43.043Z,99383.34
2023-01-01T08:57:10.485Z,99381.66
2023-01-01T08:59:37.272Z,99374.98
2023-01-01T09:02:04.279Z,99375.13
2023-01-01T09:04:30.894Z,99382.23
2023-01-01T09:06:57.376Z,99389.42
2023-01-01T09:09:29.285Z,99398.40
2023-01-01T09:12:03.400Z,99414.15
2023-01-01T09:14:30.201Z,99418.75
2023-01-01T09:16:56.744Z,99415.71
2023-01-01T09:19:23.539Z,99407.23
2023-01-01T09:21:50.344Z,99396.86
2023-01-01T09:24:16.777Z,99406.36
2023-01-01T09:26:44.941Z,99401.88
2023-01-01T09:29:11.394Z,99400.89
2023-01-01T09:31:37.884Z,99402.09
2023-01-01T09:34:04.410Z,99394.54
2023-01-01T09:36:32.530Z,99393.30
2023-01-01T09:38:59.902Z,99389.57
2023-01-01T09:41:34.286Z,99388.79
2023-01-01T09:44:32.010Z,99389.98
2023-01-01T09:47:01.637Z,99389.69
2023-01-01T09:49:38.634Z,99396.20
2023-01-01T09:52:05.674Z,99391.09
2023-01-01T09:54:50.802Z,99383.61
2023-01-01T09:57:20.271Z,99390.92
2023-01-01T09:59:47.057Z,99394.98
2023-01-01T10:02:45.620Z,99390.66
2023-01-01T10:05:44.292Z,99383.73
2023-01-01T10:08:29.192Z,99381.27
2023-01-01T10:10:59.778Z,99374.35
2023-01-01T10:13:36.345Z,99374.06
2023-01-01T10:16:08.891Z,99371.02
2023-01-01T10:18:38.241Z,99377.96
2023-01-01T10:21:12.076Z,99384.10
2023-01-01T10:23:44.108Z,99395.98
2023-01-01T10:26:16.135Z,99404.19
2023-01-01T10:29:03.089Z,99400.90
2023-01-01T10:31:34.018Z,99397.13
2023-01-01T10:34:15.142Z,99389.33
2023-01-01T10:36:43.031Z,99384.01
2023-01-01T10:39:15.558Z,99391.91
2023-01-01T10:41:43.543Z,99386.13
2023-01-01T10:44:11.788Z,99386.16
2023-01-01T10:46:43.638Z,99380.55
2023-01-01T10:49:15.744Z,99379.25
2023-01-01T10:51:53.392Z,99382.75
2023-01-01T10:54:32.558Z,99393.71
2023-01-01T10:57:12.467Z,99395.77
2023-01-01T10:59:40.880Z,99392.91
2023-01-01T11:02:19.354Z,99394.44
2023-01-01T11:04:47.382Z,99390.39
2023-01-01T11:07:33.279Z,99391.71
2023-01-01T11:10:04.471Z,99389.39
2023-01-01T11:15:36.001Z,99390.85
2023-01-01T11:18:07.496Z,99391.09
2023-01-01T11:20:34.001Z,99394.28
2023-01-01T11:23:17.480Z,99390.13
2023-01-01T11:25:57.486Z,99389.80
2023-01-01T11:28:23.994Z,99387.31
2023-01-01T11:31:04.999Z,99384.91
2023-01-01T11:33:36.100Z,99385.40
2023-01-01T11:36:04.421Z,99389.85
2023-01-01T11:38:31.024Z,99391.14
2023-01-01T11:41:04.624Z,99388.83
2023-01-01T11:43:39.524Z,99392.23
2023-01-01T11:46:11.149Z,99391.96
2023-01-01T11:48:42.424Z,99388.73
2023-01-01T11:51:26.597Z,99380.77
2023-01-01T11:54:08.968Z,99392.60
2023-01-01T11:56:36.054Z,99392.02
2023-01-01T11:59:15.793Z,99388.70
2023-01-01T12:01:45.764Z,99380.27
2023-01-01T12:04:35.699Z,99386.52
2023-01-01T12:07:07.538Z,99386.35
2023-01-01T12:09:52.118Z,99390.73
2023-01-01T12:12:30.347Z,99387.92
2023-01-01T12:15:03.047Z,99389.52
2023-01-01T12:18:07.968Z,99393.35
2023-01-01T12:20:39.728Z,99395.64
2023-01-01T12:23:09.289Z,99389.52
2023-01-01T12:25:43.257Z,99395.19
2023-01-01T12:28:33.419Z,99397.88
2023-01-01T12:31:25.405Z,99397.95
2023-01-01T12:34:29.504Z,99394.80
2023-01-01T12:37:28.953Z,99385.65
2023-01-01T12:40:10.325Z,99386.70
2023-01-01T12:43:13.802Z,99384.65
2023-01-01T12:46:05.224Z,99384.73
2023-01-01T12:49:02.454Z,99386.40
2023-01-01T12:51:37.110Z,99386.16
2023-01-01T12:54:06.262Z,99390.58
2023-01-01T12:56:48.924Z,99396.90
2023-01-01T12:59:21.944Z,99399.89
2023-01-01T13:01:54.627Z,99407.67
2023-01-01T13:04:22.036Z,99411.32
2023-01-01T13:06:51.470Z,99403.57
2023-01-01T13:09:26.879Z,99409.70
2023-01-01T13:11:58.349Z,99401.66
2023-01-01T13:14:24.989Z,99403.73
2023-01-01T13:16:54.205Z,99407.17
2023-01-01T13:19:30.071Z,99410.64
2023-01-01T13:21:56.623Z,99409.20
2023-01-01T13:24:26.017Z,99407.81
2023-01-01T13:26:53.151Z,99404.54
2023-01-01T13:29:19.700Z,99410.47
2023-01-01T13:31:46.162Z,99410.00
2023-01-01T13:34:59.106Z,99412.34
2023-01-01T13:37:27.890Z,99411.48
2023-01-01T13:40:03.102Z,99410.38
2023-01-01T13:43:00.677Z,99414.69
2023-01-01T13:46:10.367Z,99418.30
2023-01-01T13:48:41.457Z,99414.02
2023-01-01T13:51:47.216Z,99413.98
2023-01-01T13:54:39.285Z,99409.68
2023-01-01T13:57:30.399Z,99411.05
2023-01-01T14:00:22.728Z,99411.34
2023-01-01T14:02:58.228Z,99410.24
2023-01-01T14:05:38.730Z,99417.05
2023-01-01T14:08:11.520Z,99416.38
2023-01-01T14:10:39.742Z,99420.96
2023-01-01T14:13:06.212Z,99419.98
2023-01-01T14:15:42.516Z,99413.58
2023-01-01T14:18:17.086Z,99413.39
2023-01-01T14:20:50.729Z,99412.08
2023-01-01T14:23:25.406Z,99412.67
2023-01-01T14:25:51.912Z,99409.48
2023-01-01T14:28:30.259Z,99409.31
2023-01-01T14:31:00.126Z,99413.83
2023-01-01T14:33:30.720Z,99414.77
2023-01-01T14:36:01.420Z,99417.80
2023-01-01T14:38:34.401Z,99417.77
2023-01-01T14:41:20.067Z,99423.36
2023-01-01T14:43:49.009Z,99425.91
2023-01-01T14:46:18.845Z,99434.60
2023-01-01T14:48:47.508Z,99435.48
2023-01-01T14:51:23.199Z,99443.52
2023-01-01T14:53:52.114Z,99450.66
2023-01-01T14:56:29.081Z,99453.20
2023-01-01T14:59:06.224Z,99453.37
2023-01-01T15:01:32.963Z,99464.77
2023-01-01T15:04:02.796Z,99470.10
2023-01-01T15:06:31.356Z,99473.98
2023-01-01T15:08:57.963Z,99473.59
2023-01-01T15:11:29.052Z,99474.02
2023-01-01T15:14:01.466Z,99472.74
2023-01-01T15:16:32.064Z,99474.33
2023-01-01T15:19:17.073Z,99477.58
2023-01-01T15:21:43.590Z,99485.98
2023-01-01T15:24:24.358Z,99488.80
2023-01-01T15:26:56.561Z,99498.13
2023-01-01T15:29:32.301Z,99497.55
2023-01-01T15:32:11.047Z,99501.46
2023-01-01T15:34:46.813Z,99503.73
2023-01-01T15:37:19.289Z,99500.05
2023-01-01T15:39:51.349Z,99499.66
2023-01-01T15:42:36.267Z,99503.05
2023-01-01T15:45:30.666Z,99507.92
2023-01-01T15:48:17.036Z,99519.48
2023-01-01T15:50:49.598Z,99521.91
2023-01-01T15:53:22.039Z,99537.65
2023-01-01T15:55:56.675Z,99541.49
2023-01-01T15:58:33.952Z,99543.25
2023-01-01T16:01:04.685Z,99548.27
2023-01-01T16:03:33.461Z,99547.11
2023-01-01T16:06:00.270Z,99555.04
2023-01-01T16:08:26.833Z,99557.89
2023-01-01T16:10:53.390Z,99554.98
2023-01-01T16:13:19.919Z,99562.73
2023-01-01T16:15:56.072Z,99560.65
2023-01-01T16:18:34.424Z,99553.70
2023-01-01T16:21:02.736Z,99564.31
2023-01-01T16:23:29.552Z,99561.08
2023-01-01T16:25:56.043Z,99557.02
2023-01-01T16:28:23.052Z,99559.34
2023-01-01T16:30:49.851Z,99564.59
2023-01-01T16:33:18.627Z,99564.59
2023-01-01T16:35:45.554Z,99565.70
2023-01-01T16:38:12.151Z,99555.45
2023-01-01T16:40:38.850Z,99556.28
2023-01-01T16:43:09.024Z,99554.80
2023-01-01T16:45:35.622Z,99555.92
2023-01-01T16:48:02.141Z,99556.33
2023-01-01T16:50:28.637Z,99554.63
2023-01-01T16:52:55.085Z,99556.19
2023-01-01T16:55:21.533Z,99553.25
2023-01-01T16:57:48.045Z,99560.09
2023-01-01T17:00:15.122Z,99561.61
2023-01-01T17:02:41.955Z,99561.08
2023-01-01T17:05:09.888Z,99565.13
2023-01-01T17:07:36.409Z,99571.54
2023-01-01T17:10:03.722Z,99575.61
2023-01-01T17:12:30.847Z,99575.34
2023-01-01T17:14:57.461Z,99577.86
2023-01-01T17:17:23.879Z,99580.46
2023-01-01T17:19:50.391Z,99583.08
2023-01-01T17:22:16.860Z,99589.23
2023-01-01T17:24:43.689Z,99594.05
2023-01-01T17:27:10.214Z,99593.30
2023-01-01T17:29:37.712Z,99589.60
2023-01-01T17:32:04.495Z,99586.37
2023-01-01T17:34:30.973Z,99592.63
2023-01-01T17:36:57.451Z,99585.95
2023-01-01T17:39:24.027Z,99590.60
2023-01-01T17:41:51.274Z,99593.89
2023-01-01T17:44:17.769Z,99591.14
2023-01-01T17:46:45.656Z,99600.76
2023-01-01T17:49:12.153Z,99603.27
2023-01-01T17:51:38.699Z,99588.69
2023-01-01T17:54:09.553Z,99584.48
2023-01-01T17:56:36.502Z,99582.83
2023-01-01T17:59:03.059Z,99586.36
2023-01-01T18:01:32.194Z,99586.40
2023-01-01T18:04:01.670Z,99586.88
2023-01-01T18:06:30.299Z,99590.67
2023-01-01T18:08:58.633Z,99587.73
2023-01-01T18:11:28.010Z,99586.27
2023-01-01T18:13:56.101Z,99581.83
2023-01-01T18:16:23.109Z,99585.34
2023-01-01T18:18:49.693Z,99586.86
2023-01-01T18:21:22.829Z,99589.60
2023-01-01T18:23:51.125Z,99595.09
2023-01-01T18:26:18.644Z,99597.84
2023-01-01T18:28:50.347Z,99594.48
2023-01-01T18:31:17.260Z,99596.91
2023-01-01T18:33:46.060Z,99596.63
2023-01-01T18:36:14.820Z,99596.25
2023-01-01T18:38:45.283Z,99588.48
2023-01-01T18:41:24.810Z,99593.16
2023-01-01T18:43:51.257Z,99592.72
2023-01-01T18:46:19.300Z,99594.66
2023-01-01T18:48:46.914Z,99593.23
2023-01-01T18:51:21.199Z,99597.27
2023-01-01T18:53:49.025Z,99591.73
2023-01-01T18:56:15.601Z,99594.13
2023-01-01T18:58:43.383Z,99598.67
2023-01-01T19:01:19.201Z,99602.73
2023-01-01T19:03:49.527Z,99609.08
2023-01-01T19:06:25.321Z,99609.02
2023-01-01T19:09:02.419Z,99605.38
2023-01-01T19:11:29.509Z,99604.11
2023-01-01T19:14:07.790Z,99607.84
2023-01-01T19:16:34.464Z,99611.63
2023-01-01T19:19:12.434Z,99609.75
2023-01-01T19:21:39.911Z,99610.20
2023-01-01T19:24:16.483Z,99609.57
2023-01-01T19:26:44.818Z,99609.92
2023-01-01T19:29:16.517Z,99610.35
2023-01-01T19:31:48.732Z,99614.65
2023-01-01T19:34:15.509Z,99613.69
2023-01-01T19:36:42.525Z,99613.83
2023-01-01T19:39:09.966Z,99612.16
2023-01-01T19:41:36.509Z,99610.85
2023-01-01T19:44:08.641Z,99608.69
2023-01-01T19:46:38.771Z,99598.74
2023-01-01T19:49:05.445Z,99599.91
2023-01-01T19:51:32.001Z,99599.45
2023-01-01T19:53:58.509Z,99603.52
2023-01-01T19:56:25.009Z,99597.95
2023-01-01T19:58:52.280Z,99604.64
2023-01-01T20:01:19.041Z,99603.06
2023-01-01T20:03:55.093Z,99600.39
2023-01-01T20:06:22.239Z,99602.73
2023-01-01T20:08:48.718Z,99602.26
2023-01-01T20:11:15.333Z,99605.02
2023-01-01T20:13:42.364Z,99598.63
2023-01-01T20:16:09.023Z,99604.14
2023-01-01T20:18:35.666Z,99609.33
2023-01-01T20:21:25.962Z,99608.48
2023-01-01T20:23:54.168Z,99616.29
2023-01-01T20:26:22.858Z,99617.23
2023-01-01T20:29:07.902Z,99613.52
2023-01-01T20:31:34.487Z,99612.55
2023-01-01T20:34:01.039Z,99619.48
2023-01-01T20:36:46.048Z,99624.00
2023-01-01T20:39:12.656Z,99631.27
2023-01-01T20:41:39.207Z,99633.29
2023-01-01T20:44:05.692Z,99622.89
2023-01-01T20:46:33.297Z,99623.27
2023-01-01T20:48:59.940Z,99630.84
2023-01-01T20:51:27.035Z,99628.84
2023-01-01T20:53:53.651Z,99629.10
2023-01-01T20:56:20.244Z,99623.39
2023-01-01T20:58:51.064Z,99618.77
2023-01-01T21:01:20.136Z,99617.84
2023-01-01T21:03:46.894Z,99617.14
2023-01-01T21:06:17.130Z,99616.43
2023-01-01T21:08:47.290Z,99619.62
2023-01-01T21:11:14.962Z,99614.46
2023-01-01T21:13:43.428Z,99610.66
2023-01-01T21:16:15.679Z,99621.45
2023-01-01T21:18:42.780Z,99622.59
2023-01-01T21:21:19.674Z,99623.73
2023-01-01T21:23:47.239Z,99624.34
2023-01-01T21:26:29.515Z,99623.71
2023-01-01T21:28:58.678Z,99623.25
2023-01-01T21:31:28.868Z,99631.92
2023-01-01T21:33:55.405Z,99634.74
2023-01-01T21:36:22.970Z,99638.59
2023-01-01T21:38:51.298Z,99637.88
2023-01-01T21:41:24.390Z,99633.74
2023-01-01T21:43:56.320Z,99635.16
2023-01-01T21:46:34.316Z,99633.95
2023-01-01T21:49:03.775Z,99627.07
2023-01-01T21:51:45.507Z,99626.58
2023-01-01T21:54:12.297Z,99630.30
2023-01-01T21:56:41.708Z,99628.45
2023-01-01T21:59:26.950Z,99634.89
2023-01-01T22:02:15.701Z,99624.31
2023-01-01T22:04:49.789Z,99624.15
2023-01-01T22:07:56.930Z,99623.48
2023-01-01T22:10:21.933Z,99625.13
2023-01-01T22:12:53.263Z,99626.20
2023-01-01T22:15:28.912Z,99628.19
2023-01-01T22:18:15.000Z,99624.71
2023-01-01T22:20:43.652Z,99622.91
2023-01-01T22:23:19.126Z,99621.85
2023-01-01T22:25:46.676Z,99613.50
2023-01-01T22:28:39.931Z,99614.76
2023-01-01T22:31:09.990Z,99606.93
2023-01-01T22:33:38.412Z,99604.64
2023-01-01T22:36:21.745Z,99595.70
2023-01-01T22:38:48.504Z,99594.15
2023-01-01T22:41:15.047Z,99592.58
2023-01-01T22:43:43.488Z,99590.55
2023-01-01T22:46:22.206Z,99583.77
2023-01-01T22:48:54.263Z,99579.30
2023-01-01T22:51:28.219Z,99576.50
2023-01-01T22:53:54.728Z,99567.45
2023-01-01T22:56:21.232Z,99565.09
2023-01-01T22:58:53.119Z,99553.71
2023-01-01T23:01:23.236Z,99554.36
2023-01-01T23:03:50.095Z,99555.42
2023-01-01T23:06:17.645Z,99552.38
2023-01-01T23:08:44.202Z,99554.06
2023-01-01T23:11:10.800Z,99548.48
2023-01-01T23:13:55.656Z,99544.17
2023-01-01T23:16:22.475Z,99543.65
2023-01-01T23:18:48.967Z,99532.95
2023-01-01T23:21:26.794Z,99533.92
2023-01-01T23:23:56.888Z,99527.01
2023-01-01T23:26:24.758Z,99523.48
2023-01-01T23:28:53.747Z,99524.38
2023-01-01T23:31:25.212Z,99517.48
2023-01-01T23:33:54.129Z,99513.82
2023-01-01T23:36:21.745Z,99513.34
2023-01-01T23:38:48.218Z,99509.59
2023-01-01T23:41:14.766Z,99509.41
2023-01-01T23:43:43.746Z,99511.46
2023-01-01T23:46:14.459Z,99509.90
2023-01-01T23:48:43.436Z,99510.09
2023-01-01T23:51:10.836Z,99509.89
2023-01-01T23:53:37.447Z,99507.40
2023-01-01T23:56:04.244Z,99505.45
2023-01-01T23:58:30.889Z,99505.51
